Stations météo

Publicité
Paris St-Maur, France (7154): Température de l'air & dewpoint: 11.08.2017 13:00:00 - 17.08.2017 13:00:00 (CEST)Paris St-Maur, France (7154): Vitesse du vent & gusts: 11.08.2017 13:00:00 - 17.08.2017 13:00:00 (CEST)Paris St-Maur, France (7154): Direction du vent: 11.08.2017 13:00:00 - 17.08.2017 13:00:00 (CEST)Paris St-Maur, France (7154): Quantités de précipitations: 11.08.2017 13:00:00 - 17.08.2017 13:00:00 (CEST)
Date & Time tt [°C] td [°C] ff [km/h] ff [knt] fx [km/h] fx [knt] dd rr [mm]
17.08.2017 13:00:00 20,2 17,2 16 9 31 17 SSW 0,0
17.08.2017 12:00:00 19,0 17,0 16 9 29 16 SSW 0,0
17.08.2017 11:00:00 18,4 16,4 15 8 29 16 SSW 0,6
17.08.2017 10:00:00 18,7 15,2 21 11 39 21 SSW 0,2
17.08.2017 09:00:00 17,7 14,8 21 11 37 20 SSW 0,0
17.08.2017 08:00:00 16,3 14,1 13 7 26 14 S -
17.08.2017 07:00:00 15,3 14,0 8 4 13 7 SSE 0,0
17.08.2017 06:00:00 15,4 14,3 8 4 13 7 SSE 0,0
17.08.2017 05:00:00 15,7 14,7 8 4 13 7 S 0,0
17.08.2017 04:00:00 16,0 15,0 8 4 15 8 S 0,0
17.08.2017 03:00:00 16,2 15,2 5 3 11 6 S 0,0
17.08.2017 02:00:00 16,7 15,7 5 3 9 5 S -
17.08.2017 01:00:00 17,6 16,5 8 4 11 6 S 0,0
17.08.2017 00:00:00 18,7 17,5 9 5 13 7 S 0,0
16.08.2017 23:00:00 19,6 18,3 8 4 11 6 SSE 0,0
16.08.2017 22:00:00 20,4 18,7 4 2 8 4 SE 0,0
16.08.2017 21:00:00 21,5 18,3 5 3 28 15 NW 2,0
16.08.2017 20:00:00 23,9 15,7 8 4 16 9 SE -
16.08.2017 19:00:00 24,9 15,5 8 4 16 9 ESE 0,0
16.08.2017 18:00:00 26,2 14,6 8 4 16 9 SE 0,0
16.08.2017 17:00:00 25,8 14,0 8 4 22 12 SE 0,0
16.08.2017 16:00:00 26,7 15,1 8 4 18 10 ESE 0,0
16.08.2017 15:00:00 25,4 13,6 4 2 16 9 ESE 0,0
16.08.2017 14:00:00 24,2 13,4 9 5 15 8 ESE -
16.08.2017 13:00:00 24,2 13,7 4 2 11 6 NE 0,0
16.08.2017 12:00:00 22,0 14,6 4 2 9 5 NNE 0,0
16.08.2017 11:00:00 18,8 15,7 5 3 9 5 NNE 0,0
16.08.2017 10:00:00 16,9 16,1 8 4 13 7 N 0,0
16.08.2017 09:00:00 16,0 15,4 4 2 11 6 NNE 0,0
16.08.2017 08:00:00 14,9 14,3 2 1 8 4 NNE -
16.08.2017 07:00:00 14,0 13,2 4 2 8 4 NNE 0,0
16.08.2017 06:00:00 14,6 13,8 5 3 11 6 N 0,0
16.08.2017 05:00:00 14,9 14,1 8 4 11 6 N 0,0
16.08.2017 04:00:00 15,3 14,3 5 3 13 7 NNE 0,0
16.08.2017 03:00:00 16,2 15,2 9 5 16 9 NNE 0,0
16.08.2017 02:00:00 17,2 16,2 11 6 18 10 N -
16.08.2017 01:00:00 18,6 17,6 9 5 16 9 N 0,0
16.08.2017 00:00:00 18,7 17,7 9 5 13 7 NNW 0,0
15.08.2017 23:00:00 19,2 18,0 2 1 9 5 NNE 0,2
15.08.2017 22:00:00 19,3 18,0 4 2 13 7 ESE 2,0
15.08.2017 21:00:00 19,6 18,1 8 4 8 4 SSE 0,0
15.08.2017 20:00:00 19,6 17,9 4 2 21 11 S -
15.08.2017 19:00:00 19,1 16,9 13 7 37 20 S 0,6
15.08.2017 18:00:00 20,7 17,5 21 11 41 22 S 2,0
15.08.2017 17:00:00 24,6 15,8 13 7 28 15 SSE 0,0
15.08.2017 16:00:00 27,0 15,1 13 7 22 12 WSW 0,0
15.08.2017 15:00:00 27,6 14,9 11 6 26 14 WSW 0,0
15.08.2017 14:00:00 25,3 16,7 15 8 29 16 WSW -
15.08.2017 13:00:00 23,6 17,1 11 6 29 16 SSW 0,0
15.08.2017 12:00:00 23,0 16,8 16 9 34 18 SSW 0,0
15.08.2017 11:00:00 23,8 17,3 22 12 37 20 SW 0,0
15.08.2017 10:00:00 21,5 17,5 11 6 21 11 SSW 0,0
15.08.2017 09:00:00 19,4 17,4 2 1 18 10 W 0,0
15.08.2017 08:00:00 18,4 16,4 11 6 22 12 SSE -
15.08.2017 07:00:00 18,1 15,9 11 6 34 18 SSE 0,0
15.08.2017 06:00:00 17,9 16,4 13 7 22 12 SE 0,0
15.08.2017 05:00:00 18,5 16,5 16 9 35 19 SE 6,0
15.08.2017 04:00:00 20,0 13,5 9 5 18 10 ESE 0,0
15.08.2017 03:00:00 18,9 13,1 9 5 16 9 SE 0,0
15.08.2017 02:00:00 19,2 12,9 5 3 15 8 ESE -
15.08.2017 01:00:00 20,2 13,4 9 5 18 10 E 0,0
15.08.2017 00:00:00 20,1 13,5 11 6 16 9 ESE 0,0
14.08.2017 23:00:00 19,8 13,7 11 6 16 9 E 0,0
14.08.2017 22:00:00 21,1 13,8 8 4 11 6 E 0,0
14.08.2017 21:00:00 23,5 14,2 4 2 8 4 E 0,0
14.08.2017 20:00:00 25,7 13,9 5 3 13 7 SE -
14.08.2017 19:00:00 28,1 10,8 5 3 22 12 SSE 0,0
14.08.2017 18:00:00 28,9 10,5 8 4 26 14 S 0,0
14.08.2017 17:00:00 28,3 11,4 8 4 22 12 SSE 0,0
14.08.2017 16:00:00 26,9 11,0 11 6 24 13 SSE 0,0
14.08.2017 15:00:00 26,0 11,0 8 4 21 11 SW 0,0
14.08.2017 14:00:00 26,5 11,0 5 3 22 12 SSE -
14.08.2017 13:00:00 24,7 11,3 5 3 15 8 S 0,0
14.08.2017 12:00:00 23,6 11,9 4 2 15 8 SE 0,0
14.08.2017 11:00:00 21,6 10,1 2 1 9 5 E 0,0
14.08.2017 10:00:00 17,7 12,2 4 2 8 4 SSW 0,0
14.08.2017 09:00:00 13,2 11,8 2 1 5 3 SE 0,0
14.08.2017 08:00:00 11,6 10,7 0 0 5 3 N -
14.08.2017 07:00:00 11,0 9,9 0 0 8 4 N 0,0
14.08.2017 06:00:00 11,6 10,3 5 3 8 4 SSE 0,0
14.08.2017 05:00:00 12,0 10,7 4 2 8 4 SSE 0,0
14.08.2017 04:00:00 12,8 11,4 4 2 8 4 SSE 0,0
14.08.2017 03:00:00 13,2 11,4 0 0 5 3 N 0,0
14.08.2017 02:00:00 13,4 11,1 2 1 8 4 NE -
14.08.2017 01:00:00 13,9 11,1 8 4 8 4 SE 0,0
14.08.2017 00:00:00 14,7 11,3 4 2 8 4 SSE 0,0
13.08.2017 23:00:00 15,6 11,2 5 3 11 6 SSW 0,0
13.08.2017 22:00:00 17,2 11,0 8 4 13 7 SSE 0,0
13.08.2017 21:00:00 20,4 10,2 5 3 11 6 SE 0,0
13.08.2017 20:00:00 22,2 9,4 5 3 13 7 E -
13.08.2017 19:00:00 24,1 8,1 5 3 9 5 NNW 0,0
13.08.2017 18:00:00 22,9 9,7 5 3 13 7 NNE 0,0
13.08.2017 17:00:00 22,1 9,6 4 2 11 6 ENE 0,0
13.08.2017 16:00:00 23,5 9,5 4 2 16 9 NE 0,0
13.08.2017 15:00:00 22,7 8,4 4 2 9 5 ENE 0,0
13.08.2017 14:00:00 20,9 11,2 4 2 13 7 NNE -
13.08.2017 13:00:00 21,7 9,9 0 0 9 5 N 0,0
13.08.2017 12:00:00 19,3 11,3 2 1 8 4 NW 0,0
13.08.2017 11:00:00 18,1 11,6 2 1 11 6 W 0,0
13.08.2017 10:00:00 16,7 12,4 8 4 15 8 NW 0,0
13.08.2017 09:00:00 13,5 12,6 4 2 11 6 W 0,0
13.08.2017 08:00:00 12,1 11,3 0 0 5 3 N -
13.08.2017 07:00:00 11,9 11,0 4 2 9 5 WSW 0,0
13.08.2017 06:00:00 12,1 11,2 4 2 8 4 W 0,0
13.08.2017 05:00:00 12,6 11,3 5 3 8 4 W 0,0
13.08.2017 04:00:00 13,4 12,3 5 3 11 6 WNW 0,0
13.08.2017 03:00:00 13,7 12,4 5 3 16 9 NW 0,0
13.08.2017 02:00:00 14,8 13,3 11 6 22 12 NW -
13.08.2017 01:00:00 16,3 15,0 11 6 16 9 NW 0,0
13.08.2017 00:00:00 17,4 16,3 8 4 18 10 NNW 0,0
12.08.2017 23:00:00 17,4 16,3 4 2 11 6 WSW 0,0
12.08.2017 22:00:00 17,5 16,0 2 1 15 8 SW 0,4
12.08.2017 21:00:00 18,1 16,1 13 7 31 17 WNW 1,0
12.08.2017 20:00:00 19,1 15,6 21 11 35 19 SSW -
12.08.2017 19:00:00 18,7 15,8 15 8 28 15 SW 0,2
12.08.2017 18:00:00 18,8 15,3 13 7 29 16 SSW 0,0
12.08.2017 17:00:00 18,9 15,2 15 8 41 22 SW 0,0
12.08.2017 16:00:00 20,2 14,6 18 10 37 20 SW 0,0
12.08.2017 15:00:00 20,3 14,0 16 9 35 19 SW 0,0
12.08.2017 14:00:00 20,2 13,2 21 11 35 19 SSW -
12.08.2017 13:00:00 19,6 13,1 16 9 39 21 SW 0,0
12.08.2017 12:00:00 17,5 12,8 13 7 24 13 SSW 0,0
12.08.2017 11:00:00 16,1 12,3 15 8 34 18 SSW 0,0
12.08.2017 10:00:00 16,0 12,2 15 8 28 15 SW 0,0
12.08.2017 09:00:00 15,7 11,1 13 7 24 13 SSW 0,0
12.08.2017 08:00:00 15,2 10,8 9 5 18 10 SW -
12.08.2017 07:00:00 15,1 10,9 9 5 16 9 SW 0,0
12.08.2017 06:00:00 14,9 10,5 9 5 16 9 SW 0,0
12.08.2017 05:00:00 14,7 10,9 8 4 15 8 SW 0,0
12.08.2017 04:00:00 14,7 10,7 9 5 18 10 SW 0,2
12.08.2017 03:00:00 14,1 10,3 8 4 16 9 WSW 0,0
12.08.2017 02:00:00 14,4 10,0 9 5 18 10 W -
12.08.2017 01:00:00 15,3 10,1 11 6 24 13 WNW 0,0
12.08.2017 00:00:00 16,4 10,7 15 8 31 17 NW 0,0
11.08.2017 23:00:00 16,7 12,2 11 6 21 11 NW 0,0
11.08.2017 22:00:00 16,8 11,7 5 3 16 9 W 0,0
11.08.2017 21:00:00 18,4 11,5 9 5 18 10 WNW 0,0
11.08.2017 20:00:00 20,0 11,2 9 5 22 12 W -
11.08.2017 19:00:00 20,5 10,6 9 5 31 17 WNW 0,0
11.08.2017 18:00:00 21,1 11,4 16 9 29 16 WNW 0,0
11.08.2017 17:00:00 21,1 11,4 8 4 18 10 W 0,0
11.08.2017 16:00:00 19,7 12,2 11 6 29 16 NW 0,0
11.08.2017 15:00:00 21,2 11,5 8 4 21 11 NW 0,0
11.08.2017 14:00:00 21,1 11,1 9 5 18 10 NNW -
11.08.2017 13:00:00 20,4 11,1 8 4 21 11 NW 0,0

tt = Température de l'air
td = dewpoint
ff = Vitesse du vent
fx = gusts
dd = Direction du vent
rr = Quantités de précipitations

stations d'obs. à proximité